EAL377 KABI-KMEM
Flight info
| Callsign | EAL377 |
|---|---|
| Flight time | N/A |
| Altitude | 37000 |
| Route | MQP FUZ CVE TXK HOBRK4 |
| Aircraft | R722/M-SDFGRWY/S |
Departure
| Time | 2026-04-17 20:45 |
|---|---|
| Airport | Abilene Regional Airport (KABI) |
Arrival
| Time | N/A |
|---|---|
| Airport | Memphis International Airport (KMEM) |
| Time | Latitude | Longitude | Altitude | Speed | Heading |
|---|---|---|---|---|---|
| 2026-04-17 20:41 | 32.40812 | -99.67476 | 1803 ft | 0 kts | 180° |
| 2026-04-17 20:45 | 32.40760 | -99.67477 | 1803 ft | 26 kts | 182° |
| 2026-04-17 20:45 | 32.40317 | -99.67474 | 1803 ft | 100 kts | 180° |
| 2026-04-17 20:45 | 32.39378 | -99.67465 | 1808 ft | 167 kts | 179° |
| 2026-04-17 20:45 | 32.38178 | -99.67400 | 2474 ft | 178 kts | 175° |
| 2026-04-17 20:46 | 32.37041 | -99.67192 | 3615 ft | 165 kts | 170° |
| 2026-04-17 20:46 | 32.35916 | -99.66863 | 4278 ft | 177 kts | 166° |
| 2026-04-17 20:46 | 32.34703 | -99.66247 | 4692 ft | 209 kts | 153° |
| 2026-04-17 20:46 | 32.33438 | -99.65148 | 5068 ft | 243 kts | 140° |
| 2026-04-17 20:47 | 32.32285 | -99.63612 | 5853 ft | 263 kts | 129° |
| 2026-04-17 20:47 | 32.31466 | -99.61636 | 6756 ft | 281 kts | 103° |
| 2026-04-17 20:47 | 32.31570 | -99.59302 | 7690 ft | 297 kts | 73° |
| 2026-04-17 20:47 | 32.32630 | -99.57200 | 8638 ft | 307 kts | 44° |
| 2026-04-17 20:48 | 32.34407 | -99.55876 | 9617 ft | 310 kts | 16° |
| 2026-04-17 20:48 | 32.36512 | -99.55637 | 10621 ft | 308 kts | 348° |
| 2026-04-17 20:48 | 32.38457 | -99.56539 | 11603 ft | 302 kts | 320° |
| 2026-04-17 20:48 | 32.39874 | -99.58280 | 12532 ft | 299 kts | 304° |
| 2026-04-17 20:49 | 32.41122 | -99.60236 | 13479 ft | 302 kts | 302° |
| 2026-04-17 20:49 | 32.42390 | -99.62193 | 14392 ft | 306 kts | 307° |
| 2026-04-17 20:49 | 32.43915 | -99.63947 | 15277 ft | 312 kts | 317° |
| 2026-04-17 20:49 | 32.45911 | -99.65025 | 16066 ft | 328 kts | 344° |
| 2026-04-17 20:50 | 32.48215 | -99.64993 | 16808 ft | 345 kts | 9° |
| 2026-04-17 20:50 | 32.50433 | -99.63801 | 17502 ft | 359 kts | 33° |
| 2026-04-17 20:50 | 32.52132 | -99.61620 | 18147 ft | 370 kts | 58° |
| 2026-04-17 20:50 | 32.53031 | -99.58786 | 18759 ft | 375 kts | 82° |
| 2026-04-17 20:51 | 32.52965 | -99.55686 | 19357 ft | 374 kts | 107° |
| 2026-04-17 20:51 | 32.52142 | -99.52810 | 19945 ft | 375 kts | 116° |
| 2026-04-17 20:51 | 32.51137 | -99.49917 | 20560 ft | 380 kts | 117° |
| 2026-04-17 20:51 | 32.50101 | -99.47021 | 21159 ft | 386 kts | 117° |
| 2026-04-17 20:52 | 32.49055 | -99.44109 | 21736 ft | 391 kts | 117° |
| 2026-04-17 20:52 | 32.48146 | -99.41073 | 22270 ft | 401 kts | 106° |
| 2026-04-17 20:52 | 32.47789 | -99.37762 | 22792 ft | 410 kts | 92° |
| 2026-04-17 20:52 | 32.47922 | -99.34370 | 23312 ft | 416 kts | 84° |
| 2026-04-17 20:53 | 32.48340 | -99.30961 | 23545 ft | 430 kts | 80° |
| 2026-04-17 20:53 | 32.48932 | -99.27352 | 23185 ft | 460 kts | 78° |
| 2026-04-17 20:53 | 32.49627 | -99.23595 | 23317 ft | 476 kts | 77° |
| 2026-04-17 20:53 | 32.50375 | -99.19706 | 23652 ft | 486 kts | 76° |
| 2026-04-17 20:54 | 32.51136 | -99.15797 | 24046 ft | 494 kts | 76° |
| 2026-04-17 20:54 | 32.51905 | -99.11842 | 24481 ft | 501 kts | 76° |
| 2026-04-17 20:54 | 32.52680 | -99.07812 | 25004 ft | 504 kts | 76° |
| 2026-04-17 20:54 | 32.53449 | -99.03731 | 25564 ft | 507 kts | 76° |
| 2026-04-17 20:55 | 32.54204 | -98.99656 | 26100 ft | 510 kts | 75° |
| 2026-04-17 20:55 | 32.54956 | -98.95578 | 26593 ft | 513 kts | 75° |
| 2026-04-17 20:55 | 32.55728 | -98.91409 | 27064 ft | 516 kts | 75° |
| 2026-04-17 20:55 | 32.56501 | -98.87264 | 27517 ft | 519 kts | 74° |
| 2026-04-17 20:56 | 32.57287 | -98.83094 | 27933 ft | 523 kts | 74° |
| 2026-04-17 20:56 | 32.58094 | -98.78855 | 28344 ft | 527 kts | 73° |
| 2026-04-17 20:56 | 32.58898 | -98.74649 | 28740 ft | 530 kts | 73° |
| 2026-04-17 20:56 | 32.59708 | -98.70403 | 29127 ft | 534 kts | 73° |
| 2026-04-17 20:57 | 32.60524 | -98.66087 | 29508 ft | 537 kts | 73° |
| 2026-04-17 20:57 | 32.61338 | -98.61745 | 29880 ft | 540 kts | 73° |